createdAt,value
2018-04-19T00:02:03.955Z,14.60
2018-04-19T00:04:31.617Z,13.37
2018-04-19T00:07:00.152Z,16.07
2018-04-19T00:09:28.126Z,17.13
2018-04-19T00:11:55.811Z,16.93
2018-04-19T00:14:24.219Z,16.10
2018-04-19T00:16:52.830Z,13.73
2018-04-19T00:19:20.493Z,14.83
2018-04-19T00:21:48.188Z,14.00
2018-04-19T00:24:16.753Z,15.10
2018-04-19T00:26:44.441Z,15.43
2018-04-19T00:29:12.954Z,16.10
2018-04-19T00:31:41.757Z,15.70
2018-04-19T00:34:09.721Z,16.00
2018-04-19T00:36:37.437Z,14.87
2018-04-19T00:39:06.841Z,15.63
2018-04-19T00:41:35.366Z,14.87
2018-04-19T00:44:03.034Z,22.83
2018-04-19T00:46:30.889Z,16.03
2018-04-19T00:48:58.582Z,17.83
2018-04-19T00:51:26.252Z,15.67
2018-04-19T00:53:53.961Z,16.23
2018-04-19T00:56:21.613Z,12.10
2018-04-19T00:58:50.037Z,13.43
2018-04-19T01:01:18.038Z,15.87
2018-04-19T01:03:46.467Z,15.63
2018-04-19T01:06:14.109Z,14.43
2018-04-19T01:08:42.715Z,14.37
2018-04-19T01:11:10.373Z,15.07
2018-04-19T01:13:38.025Z,16.57
2018-04-19T01:16:05.733Z,14.83
2018-04-19T01:18:33.389Z,19.13
2018-04-19T01:21:01.065Z,14.70
2018-04-19T01:23:28.989Z,13.60
2018-04-19T01:25:56.682Z,11.67
2018-04-19T01:28:24.350Z,14.83
2018-04-19T01:30:52.417Z,14.97
2018-04-19T01:33:20.101Z,14.30
2018-04-19T01:36:00.350Z,16.43
2018-04-19T01:38:28.004Z,12.50
2018-04-19T01:40:55.662Z,16.17
2018-04-19T01:43:23.377Z,18.07
2018-04-19T01:45:51.058Z,24.43
2018-04-19T01:48:18.765Z,18.23
2018-04-19T01:50:46.703Z,32.80
2018-04-19T01:53:14.416Z,28.50
2018-04-19T01:55:42.889Z,20.17
2018-04-19T01:58:11.519Z,16.73
2018-04-19T02:00:39.257Z,15.10
2018-04-19T02:03:06.909Z,15.43
2018-04-19T02:05:35.522Z,22.87
2018-04-19T02:08:03.185Z,17.80
2018-04-19T02:10:31.686Z,21.23
2018-04-19T02:12:59.398Z,18.87
2018-04-19T02:15:27.049Z,18.43
2018-04-19T02:17:55.461Z,17.83
2018-04-19T02:20:23.212Z,20.57
2018-04-19T02:22:50.897Z,23.23
2018-04-19T02:25:19.442Z,27.27
2018-04-19T02:27:48.093Z,52.03
2018-04-19T02:30:15.816Z,25.97
2018-04-19T02:32:43.542Z,18.40
2018-04-19T02:35:11.290Z,16.97
2018-04-19T02:37:38.947Z,17.00
2018-04-19T02:40:06.682Z,14.63
2018-04-19T02:42:34.471Z,16.90
2018-04-19T02:45:02.161Z,20.07
2018-04-19T02:47:31.319Z,13.97
2018-04-19T02:49:59.025Z,14.70
2018-04-19T02:52:27.461Z,17.27
2018-04-19T02:54:55.115Z,14.80
2018-04-19T02:57:22.863Z,20.53
2018-04-19T02:59:50.642Z,15.87
2018-04-19T03:02:18.324Z,17.57
2018-04-19T03:04:46.044Z,24.30
2018-04-19T03:07:13.705Z,20.70
2018-04-19T03:09:41.381Z,19.73
2018-04-19T03:12:09.081Z,17.50
2018-04-19T03:14:36.790Z,23.23
2018-04-19T03:17:04.502Z,17.53
2018-04-19T03:19:32.216Z,13.27
2018-04-19T03:21:59.867Z,21.97
2018-04-19T03:24:27.575Z,21.80
2018-04-19T03:26:55.304Z,20.07
2018-04-19T03:29:22.956Z,24.00
2018-04-19T03:31:51.366Z,22.27
2018-04-19T03:34:19.341Z,25.53
2018-04-19T03:36:46.989Z,27.23
2018-04-19T03:39:14.636Z,18.10
2018-04-19T03:41:42.352Z,24.00
2018-04-19T03:44:10.012Z,18.23
2018-04-19T03:46:37.717Z,26.93
2018-04-19T03:49:05.648Z,25.77
2018-04-19T03:51:33.368Z,29.90
2018-04-19T03:54:01.026Z,27.40
2018-04-19T03:56:28.820Z,26.13
2018-04-19T03:58:56.557Z,16.60
2018-04-19T04:01:24.261Z,18.83
2018-04-19T04:03:52.104Z,21.27
2018-04-19T04:06:19.789Z,21.80
2018-04-19T04:08:47.506Z,24.40
2018-04-19T04:11:15.594Z,28.40
2018-04-19T04:13:43.242Z,36.40
2018-04-19T04:16:37.647Z,65.33
2018-04-19T04:19:17.158Z,64.00
2018-04-19T04:21:56.685Z,36.00
2018-04-19T04:24:25.109Z,43.77
2018-04-19T04:26:52.761Z,38.97
2018-04-19T04:29:20.532Z,30.90
2018-04-19T04:31:48.199Z,30.97
2018-04-19T04:34:15.850Z,22.83
2018-04-19T04:36:43.553Z,33.30
2018-04-19T04:39:12.881Z,22.27
2018-04-19T04:41:41.347Z,23.00
2018-04-19T04:44:09.817Z,18.83
2018-04-19T04:46:37.518Z,18.83
2018-04-19T04:49:05.170Z,14.97
2018-04-19T04:51:33.682Z,16.07
2018-04-19T04:54:01.397Z,20.87
2018-04-19T04:56:29.045Z,19.93
2018-04-19T04:58:56.790Z,26.53
2018-04-19T05:01:24.455Z,25.00
2018-04-19T05:03:52.451Z,26.13
2018-04-19T05:06:20.301Z,24.17
2018-04-19T05:08:47.998Z,26.77
2018-04-19T05:11:15.710Z,25.20
2018-04-19T05:13:43.478Z,15.60
2018-04-19T05:16:11.134Z,20.93
2018-04-19T05:18:38.839Z,27.53
2018-04-19T05:21:07.373Z,16.87
2018-04-19T05:23:35.030Z,17.40
2018-04-19T05:26:02.735Z,19.10
2018-04-19T05:28:31.432Z,28.17
2018-04-19T05:30:59.154Z,22.70
2018-04-19T05:33:26.862Z,22.00
2018-04-19T05:35:55.746Z,21.57
2018-04-19T05:38:24.183Z,19.43
2018-04-19T05:40:51.889Z,31.13
2018-04-19T05:43:20.567Z,17.17
2018-04-19T05:45:49.042Z,16.80
2018-04-19T05:48:17.521Z,18.63
2018-04-19T05:50:45.998Z,19.87
2018-04-19T05:53:13.646Z,19.93
2018-04-19T05:55:41.342Z,23.23
2018-04-19T05:58:09.825Z,22.53
2018-04-19T06:00:38.322Z,20.80
2018-04-19T06:03:06.009Z,20.33
2018-04-19T06:05:33.777Z,23.93
2018-04-19T06:08:01.488Z,25.73
2018-04-19T06:10:29.910Z,25.20
2018-04-19T06:12:57.750Z,32.43
2018-04-19T06:15:25.409Z,26.30
2018-04-19T06:17:53.136Z,22.73
2018-04-19T06:20:20.849Z,20.63
2018-04-19T06:22:48.521Z,17.50
2018-04-19T06:25:16.409Z,18.13
2018-04-19T06:27:44.209Z,29.00
2018-04-19T06:30:12.626Z,26.20
2018-04-19T06:32:40.326Z,40.70
2018-04-19T06:35:08.034Z,25.70
2018-04-19T06:37:36.502Z,23.53
2018-04-19T06:40:04.952Z,25.70
2018-04-19T06:42:32.994Z,22.70
2018-04-19T06:45:00.641Z,26.90
2018-04-19T06:47:28.342Z,29.27
2018-04-19T06:49:56.049Z,27.27
2018-04-19T06:52:24.521Z,29.07
2018-04-19T06:54:52.941Z,24.03
2018-04-19T06:57:20.911Z,23.67
2018-04-19T06:59:48.609Z,25.20
2018-04-19T07:02:16.322Z,27.17
2018-04-19T07:04:44.026Z,43.60
2018-04-19T07:07:11.726Z,24.70
2018-04-19T07:09:40.146Z,21.33
2018-04-19T07:12:07.837Z,18.60
2018-04-19T07:14:35.536Z,23.47
2018-04-19T07:17:03.193Z,19.77
2018-04-19T07:19:31.833Z,20.70
2018-04-19T07:21:59.501Z,14.83
2018-04-19T07:24:28.097Z,16.90
2018-04-19T07:26:56.068Z,23.73
2018-04-19T07:29:23.725Z,17.33
2018-04-19T07:31:51.393Z,16.83
2018-04-19T07:34:19.173Z,20.97
2018-04-19T07:36:47.682Z,53.83
2018-04-19T07:39:15.355Z,16.13
2018-04-19T07:41:43.106Z,16.27
2018-04-19T07:44:10.826Z,17.07
2018-04-19T07:46:38.557Z,16.50
2018-04-19T07:49:06.407Z,18.97
2018-04-19T07:51:34.133Z,16.60
2018-04-19T07:54:02.578Z,20.70
2018-04-19T07:56:30.606Z,25.97
2018-04-19T07:58:58.257Z,23.73
2018-04-19T08:01:26.661Z,24.07
2018-04-19T08:03:54.393Z,16.60
2018-04-19T08:06:22.805Z,16.90
2018-04-19T08:08:50.503Z,21.17
2018-04-19T08:11:18.326Z,26.47
2018-04-19T08:13:45.957Z,27.97
2018-04-19T08:16:14.422Z,18.20
2018-04-19T08:18:42.905Z,14.73
2018-04-19T08:21:10.621Z,23.00
2018-04-19T08:23:38.342Z,15.73
2018-04-19T08:26:06.829Z,15.70
2018-04-19T08:28:35.302Z,15.00
2018-04-19T08:31:03.797Z,17.23
2018-04-19T08:33:31.662Z,25.03
2018-04-19T08:35:59.354Z,22.30
2018-04-19T08:38:27.026Z,23.67
2018-04-19T08:40:54.825Z,12.67
2018-04-19T08:43:23.244Z,14.57
2018-04-19T08:45:50.946Z,19.40
2018-04-19T08:48:19.781Z,15.10
2018-04-19T08:50:47.514Z,15.73
2018-04-19T08:53:15.178Z,15.57
2018-04-19T08:55:43.903Z,15.47
2018-04-19T08:58:11.616Z,16.30
2018-04-19T09:00:40.098Z,23.33
2018-04-19T09:03:08.623Z,20.27
2018-04-19T09:05:36.346Z,19.80
2018-04-19T09:08:04.822Z,16.90
2018-04-19T09:10:33.309Z,15.27
2018-04-19T09:13:01.722Z,18.90
2018-04-19T09:15:29.365Z,16.33
2018-04-19T09:17:57.341Z,17.67
2018-04-19T09:20:25.043Z,16.93
2018-04-19T09:22:52.754Z,22.00
2018-04-19T09:25:20.609Z,17.90
2018-04-19T09:27:49.086Z,17.93
2018-04-19T09:30:17.542Z,10.70
2018-04-19T09:32:45.329Z,18.33
2018-04-19T09:35:13.774Z,20.43
2018-04-19T09:37:41.488Z,16.57
2018-04-19T09:40:09.483Z,13.43
2018-04-19T09:42:37.222Z,14.20
2018-04-19T09:45:04.891Z,14.60
2018-04-19T09:47:32.681Z,17.63
2018-04-19T09:50:00.360Z,40.67
2018-04-19T09:52:27.998Z,18.83
2018-04-19T09:54:56.713Z,96.73
2018-04-19T09:57:24.414Z,41.83
2018-04-19T09:59:52.845Z,33.53
2018-04-19T10:02:26.257Z,28.87
2018-04-19T10:04:53.988Z,18.03
2018-04-19T10:07:21.646Z,16.27
2018-04-19T10:09:49.658Z,22.13
2018-04-19T10:12:17.379Z,12.40
2018-04-19T10:14:45.078Z,22.23
2018-04-19T10:17:13.059Z,92.17
2018-04-19T10:19:40.779Z,17.40
2018-04-19T10:22:08.499Z,13.17
2018-04-19T10:24:37.244Z,32.30
2018-04-19T10:27:04.913Z,93.47
2018-04-19T10:29:32.560Z,19.83
2018-04-19T10:32:00.602Z,14.80
2018-04-19T10:34:28.277Z,34.70
2018-04-19T10:36:55.931Z,16.63
2018-04-19T10:39:23.822Z,11.00
2018-04-19T10:41:52.244Z,12.93
2018-04-19T10:44:20.718Z,23.30
2018-04-19T10:46:48.590Z,18.33
2018-04-19T10:49:16.233Z,23.53
2018-04-19T10:51:44.650Z,14.27
2018-04-19T10:54:12.532Z,15.57
2018-04-19T10:56:40.214Z,12.13
2018-04-19T10:59:07.918Z,16.80
2018-04-19T11:01:35.691Z,15.97
2018-04-19T11:04:03.402Z,15.47
2018-04-19T11:06:31.123Z,21.37
2018-04-19T11:08:58.838Z,14.73
2018-04-19T11:11:26.547Z,12.23
2018-04-19T11:13:54.210Z,65.83
2018-04-19T11:16:21.966Z,22.33
2018-04-19T11:18:49.675Z,12.97
2018-04-19T11:21:17.342Z,86.20
2018-04-19T11:23:45.179Z,15.20
2018-04-19T11:26:12.830Z,16.23
2018-04-19T11:28:40.534Z,15.00
2018-04-19T11:31:08.246Z,18.17
2018-04-19T11:33:35.950Z,17.70
2018-04-19T11:36:03.650Z,13.47
2018-04-19T11:38:31.414Z,18.07
2018-04-19T11:40:59.073Z,16.57
2018-04-19T11:43:27.490Z,19.17
2018-04-19T11:45:55.457Z,13.03
2018-04-19T11:48:23.099Z,19.87
2018-04-19T11:50:50.746Z,25.67
2018-04-19T11:53:19.365Z,19.67
2018-04-19T11:55:47.050Z,10.37
2018-04-19T11:58:14.750Z,11.20
2018-04-19T12:00:43.220Z,19.17
2018-04-19T12:03:10.927Z,12.07
2018-04-19T12:05:38.582Z,14.77
2018-04-19T12:08:06.294Z,13.40
2018-04-19T12:10:33.951Z,17.20
2018-04-19T12:13:01.597Z,16.30
2018-04-19T12:15:29.363Z,78.90
2018-04-19T12:17:57.023Z,14.47
2018-04-19T12:20:24.706Z,13.73
2018-04-19T12:22:52.430Z,11.97
2018-04-19T12:25:20.137Z,11.77
2018-04-19T12:27:48.565Z,15.93
2018-04-19T12:30:16.273Z,10.90
2018-04-19T12:32:43.949Z,13.50
2018-04-19T12:35:12.454Z,9.70
2018-04-19T12:37:40.208Z,17.23
2018-04-19T12:40:08.680Z,36.93
2018-04-19T12:42:37.159Z,45.23
2018-04-19T12:45:05.683Z,16.33
2018-04-19T12:47:33.402Z,13.13
2018-04-19T12:50:01.879Z,24.10
2018-04-19T12:52:30.670Z,18.33
2018-04-19T12:54:59.159Z,18.63
2018-04-19T12:57:27.578Z,17.67
2018-04-19T12:59:55.327Z,19.23
2018-04-19T13:02:22.995Z,28.07
2018-04-19T13:04:50.663Z,12.73
2018-04-19T13:07:18.370Z,12.87
2018-04-19T13:09:46.796Z,14.23
2018-04-19T13:12:14.442Z,24.20
2018-04-19T13:14:42.154Z,19.80
2018-04-19T13:17:09.797Z,10.97
2018-04-19T13:19:38.206Z,18.07
2018-04-19T13:22:07.414Z,13.87
2018-04-19T13:24:35.837Z,20.10
2018-04-19T13:27:03.548Z,36.13
2018-04-19T13:29:32.206Z,11.57
2018-04-19T13:31:59.859Z,18.20
2018-04-19T13:34:27.513Z,17.77
2018-04-19T13:36:55.481Z,11.53
2018-04-19T13:39:23.173Z,17.13
2018-04-19T13:41:50.835Z,130.50
2018-04-19T13:44:18.547Z,16.93
2018-04-19T13:46:46.201Z,12.00
2018-04-19T13:49:13.843Z,16.87
2018-04-19T13:51:42.499Z,16.47
2018-04-19T13:54:10.943Z,11.37
2018-04-19T13:56:38.678Z,21.03
2018-04-19T13:59:06.478Z,18.67
2018-04-19T14:01:34.214Z,16.10
2018-04-19T14:04:01.924Z,15.10
2018-04-19T14:06:29.627Z,27.53
2018-04-19T14:08:58.082Z,21.63
2018-04-19T14:11:25.774Z,10.10
2018-04-19T14:13:53.486Z,18.03
2018-04-19T14:16:21.133Z,15.37
2018-04-19T14:18:48.785Z,109.80
2018-04-19T14:21:16.582Z,22.47
2018-04-19T14:23:44.233Z,14.17
2018-04-19T14:26:11.932Z,15.00
2018-04-19T14:28:40.394Z,13.13
2018-04-19T14:31:08.046Z,12.10
2018-04-19T14:33:35.688Z,12.80
2018-04-19T14:36:03.382Z,13.53
2018-04-19T14:38:31.022Z,11.70
2018-04-19T14:40:58.667Z,11.90
2018-04-19T14:43:26.526Z,15.47
2018-04-19T14:45:54.219Z,12.80
2018-04-19T14:48:21.922Z,15.63
2018-04-19T14:50:49.670Z,18.50
2018-04-19T14:53:18.086Z,37.13
2018-04-19T14:55:45.726Z,15.40
2018-04-19T14:58:14.333Z,13.07
2018-04-19T15:00:41.980Z,18.67
2018-04-19T15:03:09.617Z,22.13
2018-04-19T15:05:37.626Z,20.23
2018-04-19T15:08:05.277Z,16.27
2018-04-19T15:10:32.972Z,15.67
2018-04-19T15:13:00.822Z,31.87
2018-04-19T15:15:28.485Z,24.13
2018-04-19T15:17:56.126Z,15.03
2018-04-19T15:20:24.725Z,21.33
2018-04-19T15:22:52.415Z,15.23
2018-04-19T15:25:20.114Z,19.73
2018-04-19T15:27:48.734Z,16.77
2018-04-19T15:30:16.430Z,27.37
2018-04-19T15:32:44.909Z,22.37
2018-04-19T15:35:12.753Z,19.50
2018-04-19T15:37:40.414Z,42.07
2018-04-19T15:40:08.066Z,33.73
2018-04-19T15:42:35.766Z,19.17
2018-04-19T15:45:03.490Z,18.07
2018-04-19T15:47:31.146Z,22.33
2018-04-19T15:49:58.956Z,18.97
2018-04-19T15:52:26.629Z,21.63
2018-04-19T15:54:54.330Z,18.90
2018-04-19T15:57:22.087Z,20.00
2018-04-19T15:59:49.752Z,26.87
2018-04-19T16:02:17.399Z,20.20
2018-04-19T16:04:45.089Z,20.17
2018-04-19T16:07:12.741Z,14.57
2018-04-19T16:09:41.157Z,30.50
2018-04-19T16:12:08.888Z,20.93
2018-04-19T16:14:37.296Z,22.83
2018-04-19T16:17:05.756Z,33.00
2018-04-19T16:19:33.446Z,65.97
2018-04-19T16:22:01.096Z,25.67
2018-04-19T16:24:28.741Z,22.73
2018-04-19T16:26:57.637Z,21.17
2018-04-19T16:29:26.154Z,29.27
2018-04-19T16:31:53.851Z,22.80
2018-04-19T16:34:21.800Z,37.10
2018-04-19T16:36:49.449Z,56.07
2018-04-19T16:39:17.143Z,28.90
2018-04-19T16:41:44.861Z,55.40
2018-04-19T16:44:12.517Z,70.80
2018-04-19T16:46:40.309Z,52.43
2018-04-19T16:49:08.269Z,164.67
2018-04-19T16:51:36.352Z,94.60
2018-04-19T16:54:04.114Z,88.80
2018-04-19T16:56:32.069Z,156.07
2018-04-19T16:59:00.610Z,97.57
2018-04-19T17:01:28.261Z,96.17
2018-04-19T17:03:56.016Z,96.00
2018-04-19T17:06:23.695Z,120.63
2018-04-19T17:08:51.375Z,150.20
2018-04-19T17:11:19.359Z,114.67
2018-04-19T17:13:47.791Z,132.33
2018-04-19T17:16:15.464Z,64.10
2018-04-19T17:18:43.221Z,62.30
2018-04-19T17:21:10.890Z,68.83
2018-04-19T17:23:38.590Z,72.37
2018-04-19T17:26:07.078Z,55.30
2018-04-19T17:28:35.519Z,52.03
2018-04-19T17:31:03.279Z,27.63
2018-04-19T17:33:31.231Z,44.97
2018-04-19T17:35:58.890Z,51.27
2018-04-19T17:38:26.611Z,42.83
2018-04-19T17:40:55.963Z,42.10
2018-04-19T17:43:23.659Z,26.37
2018-04-19T17:45:51.490Z,22.73
2018-04-19T17:48:19.373Z,27.03
2018-04-19T17:50:47.025Z,18.67
2018-04-19T17:53:14.700Z,24.47
2018-04-19T17:55:42.489Z,16.53
2018-04-19T17:58:10.922Z,32.43
2018-04-19T18:00:38.617Z,37.13
2018-04-19T18:03:07.268Z,30.07
2018-04-19T18:05:34.913Z,25.33
2018-04-19T18:08:02.617Z,27.80
2018-04-19T18:10:30.494Z,31.80
2018-04-19T18:12:58.163Z,26.13
2018-04-19T18:15:25.835Z,39.83
2018-04-19T18:17:54.474Z,32.73
2018-04-19T18:20:22.145Z,29.43
2018-04-19T18:22:49.855Z,34.60
2018-04-19T18:25:17.745Z,40.93
2018-04-19T18:27:45.401Z,34.07
2018-04-19T18:30:13.049Z,36.00
2018-04-19T18:32:40.756Z,38.50
2018-04-19T18:35:08.429Z,41.13
2018-04-19T18:37:36.858Z,27.00
2018-04-19T18:40:05.882Z,21.53
2018-04-19T18:42:33.525Z,26.30
2018-04-19T18:45:01.197Z,28.97
2018-04-19T18:47:31.311Z,31.93
2018-04-19T18:50:01.926Z,32.90
2018-04-19T18:52:30.712Z,35.73
2018-04-19T18:55:01.788Z,31.30
2018-04-19T18:57:29.501Z,27.80
2018-04-19T18:59:57.214Z,23.03
2018-04-19T19:02:24.876Z,23.40
2018-04-19T19:04:52.594Z,23.53
2018-04-19T19:07:21.042Z,27.60
2018-04-19T19:09:48.750Z,22.17
2018-04-19T19:12:16.399Z,27.20
2018-04-19T19:14:44.869Z,21.63
2018-04-19T19:17:24.273Z,27.00
2018-04-19T19:20:05.003Z,38.93
2018-04-19T19:22:32.649Z,22.67
2018-04-19T19:25:00.350Z,26.70
2018-04-19T19:27:28.973Z,25.33
2018-04-19T19:29:56.689Z,35.43
2018-04-19T19:32:25.056Z,20.87
2018-04-19T19:34:53.936Z,30.87
2018-04-19T19:37:21.812Z,21.27
2018-04-19T19:39:49.745Z,27.03
2018-04-19T19:42:18.775Z,28.80
2018-04-19T19:44:47.882Z,29.30
2018-04-19T19:47:16.317Z,32.30
2018-04-19T19:49:45.211Z,23.67
2018-04-19T19:52:13.004Z,28.63
2018-04-19T19:54:40.977Z,30.97
2018-04-19T19:57:08.766Z,33.77
2018-04-19T19:59:37.495Z,36.40
2018-04-19T20:02:05.289Z,52.60
2018-04-19T20:04:33.019Z,49.90
2018-04-19T20:07:00.670Z,41.20
2018-04-19T20:09:29.096Z,36.40
2018-04-19T20:11:56.813Z,139.40
2018-04-19T20:14:25.282Z,142.70
2018-04-19T20:16:53.762Z,94.67
2018-04-19T20:19:24.767Z,98.73
2018-04-19T20:21:52.429Z,70.67
2018-04-19T20:24:20.293Z,63.97
2018-04-19T20:26:48.360Z,30.10
2018-04-19T20:29:16.021Z,39.73
2018-04-19T20:31:43.888Z,19.23
2018-04-19T20:34:11.589Z,24.07
2018-04-19T20:36:40.227Z,23.47
2018-04-19T20:39:08.102Z,21.13
2018-04-19T20:41:35.965Z,28.40
2018-04-19T20:44:03.827Z,22.67
2018-04-19T20:46:32.767Z,27.17
2018-04-19T20:49:01.981Z,25.73
2018-04-19T20:51:30.398Z,36.23
2018-04-19T20:53:58.033Z,35.87
2018-04-19T20:56:25.928Z,22.07
2018-04-19T20:58:53.576Z,27.80
2018-04-19T21:01:21.355Z,27.90
2018-04-19T21:03:49.085Z,27.53
2018-04-19T21:06:16.741Z,20.40
2018-04-19T21:08:44.455Z,25.43
2018-04-19T21:11:12.303Z,22.83
2018-04-19T21:13:39.952Z,27.40
2018-04-19T21:16:07.617Z,22.17
2018-04-19T21:18:35.705Z,31.67
2018-04-19T21:21:03.358Z,24.37
2018-04-19T21:23:31.239Z,20.90
2018-04-19T21:25:58.941Z,25.10
2018-04-19T21:28:27.400Z,21.67
2018-04-19T21:30:55.239Z,31.67
2018-04-19T21:33:23.310Z,26.47
2018-04-19T21:35:51.196Z,19.80
2018-04-19T21:38:18.936Z,21.13
2018-04-19T21:40:46.644Z,23.77
2018-04-19T21:43:16.516Z,25.27
2018-04-19T21:45:44.180Z,20.97
2018-04-19T21:48:12.089Z,25.33
2018-04-19T21:50:40.529Z,20.10
2018-04-19T21:53:08.169Z,18.87
2018-04-19T21:55:36.341Z,16.87
2018-04-19T21:58:04.121Z,18.40
2018-04-19T22:00:31.994Z,13.73
2018-04-19T22:03:00.262Z,18.53
2018-04-19T22:05:28.762Z,18.87
2018-04-19T22:07:56.614Z,22.30
2018-04-19T22:10:24.320Z,17.57
2018-04-19T22:12:52.755Z,21.20
2018-04-19T22:15:20.433Z,17.07
2018-04-19T22:17:48.361Z,14.53
2018-04-19T22:20:16.147Z,18.40
2018-04-19T22:22:44.020Z,55.00
2018-04-19T22:25:11.874Z,99.13
2018-04-19T22:27:39.526Z,21.37
2018-04-19T22:30:07.232Z,19.57
2018-04-19T22:32:35.211Z,17.80
2018-04-19T22:35:02.844Z,129.57
2018-04-19T22:37:30.494Z,186.67
2018-04-19T22:39:58.181Z,49.47
2018-04-19T22:42:26.025Z,22.80
2018-04-19T22:44:53.850Z,19.23
2018-04-19T22:47:22.312Z,18.77
2018-04-19T22:49:50.725Z,17.50
2018-04-19T22:52:18.373Z,15.70
2018-04-19T22:54:46.972Z,15.97
2018-04-19T22:57:14.612Z,13.87
2018-04-19T22:59:43.245Z,14.30
2018-04-19T23:02:10.952Z,20.77
2018-04-19T23:04:39.373Z,15.13
2018-04-19T23:07:07.013Z,12.30
2018-04-19T23:09:34.709Z,15.53
2018-04-19T23:12:02.573Z,12.40
2018-04-19T23:14:30.443Z,12.13
2018-04-19T23:16:58.160Z,13.90
2018-04-19T23:19:27.488Z,13.40
2018-04-19T23:21:55.272Z,13.47
2018-04-19T23:24:22.992Z,11.07
2018-04-19T23:26:51.612Z,9.03
2018-04-19T23:29:19.268Z,11.03
2018-04-19T23:31:47.495Z,15.80
2018-04-19T23:34:15.905Z,12.90
2018-04-19T23:36:43.543Z,8.17
2018-04-19T23:39:11.997Z,12.57
2018-04-19T23:41:39.841Z,8.70
2018-04-19T23:44:07.500Z,11.37
2018-04-19T23:46:35.193Z,13.57
2018-04-19T23:49:03.025Z,12.83
2018-04-19T23:51:30.898Z,12.50
2018-04-19T23:53:58.737Z,16.57
2018-04-19T23:56:26.529Z,8.47
2018-04-19T23:58:54.204Z,11.20
